Aramis — V7YD2 — position and weather

sailwx.info

Track history (hours):
 
Tides and Currents Weather Stations Pressure Air Temp Water Temp Dewpoint Dewpoint Depression Visibility Wind Speed Wind Dir Waves Ship Positions

Aramis

Last reported at 2018-Feb-13 22:12 UTC. Time now 2018-Feb-18 01:15 UTC.
Position N 37°42' W 032°53'.

Length 190 m; draft 11.3 m.

Type: Cargo ship. MMSI: 538004630.

Date/timePositionNaut miles runAvg speedWind from/ knotsBaromVisibWave heightAir tempDewpointWater temp
2018-Feb-13 22:12N 37°42' W 032°53'912.3
2018-Feb-13 21:28N 37°43' W 032°42'3612.5
2018-Feb-13 18:35N 37°45' W 031°56'1912.7
2018-Feb-13 17:03N 37°46' W 031°31'3112.5
2018-Feb-13 14:35N 37°48' W 030°52'112.1
2018-Feb-13 14:29N 37°48' W 030°51'1212.1
2018-Feb-13 13:31N 37°49' W 030°36'212.0
2018-Feb-13 13:19N 37°49' W 030°33'411.9
2018-Feb-13 12:59N 37°49' W 030°28'612.1
2018-Feb-13 12:30N 37°50' W 030°21'612.1
2018-Feb-13 12:00N 37°50' W 030°13'611.9
2018-Feb-13 11:30N 37°51' W 030°06'612.3
2018-Feb-13 11:00N 37°51' W 029°58'612.5
2018-Feb-13 10:30N 37°51' W 029°50'612.4
2018-Feb-13 10:00N 37°52' W 029°42'612.4
2018-Feb-13 09:30N 37°52' W 029°34'612.4
2018-Feb-13 09:00N 37°53' W 029°26'612.3
2018-Feb-13 08:30N 37°53' W 029°19'612.2
2018-Feb-13 08:00N 37°53' W 029°11'612.2
2018-Feb-13 07:30N 37°54' W 029°03'612.5
2018-Feb-13 07:00N 37°54' W 028°55'612.2
2018-Feb-13 06:30N 37°55' W 028°48'612.0
2018-Feb-13 06:00N 37°55' W 028°40'612.0
2018-Feb-13 05:30N 37°55' W 028°32'612.3
2018-Feb-13 05:00N 37°56' W 028°25'612.7
2018-Feb-13 04:30N 37°56' W 028°17'612.7
2018-Feb-13 04:00N 37°57' W 028°09'612.8
2018-Feb-13 03:30N 37°57' W 028°01'612.6
2018-Feb-13 03:00N 37°57' W 027°53'612.8
2018-Feb-13 02:30N 37°58' W 027°45'612.9
2018-Feb-13 02:00N 37°58' W 027°36'612.7
2018-Feb-13 01:30N 37°59' W 027°28'612.6
2018-Feb-13 01:00N 37°59' W 027°20'612.6
2018-Feb-13 00:30N 37°59' W 027°12'612.7
2018-Feb-13 00:00N 37°60' W 027°04'612.7
2018-Feb-12 23:30N 38°00' W 026°56'612.6
2018-Feb-12 23:00N 38°01' W 026°48'612.7
2018-Feb-12 22:30N 38°01' W 026°40'612.8
2018-Feb-12 22:00N 38°01' W 026°32'612.6
2018-Feb-12 21:30N 38°01' W 026°24'612.3
2018-Feb-12 21:00N 38°01' W 026°16'612.3
2018-Feb-12 20:30N 38°01' W 026°08'612.7
2018-Feb-12 20:00N 38°02' W 026°00'612.6
2018-Feb-12 19:30N 38°02' W 025°52'612.7
2018-Feb-12 19:01N 38°03' W 025°44'612.9
2018-Feb-12 18:30N 38°03' W 025°36'713.0
2018-Feb-12 18:00N 38°04' W 025°28'613.0
2018-Feb-12 17:30N 38°04' W 025°20'713.1
2018-Feb-12 17:00N 38°05' W 025°12'713.1
2018-Feb-12 16:30N 38°07' W 025°03'713.2
2018-Feb-12 16:00N 38°08' W 024°55'613.0
2018-Feb-12 15:30N 38°09' W 024°47'713.3
2018-Feb-12 15:00N 38°10' W 024°39'713.2
2018-Feb-12 14:30N 38°12' W 024°31'713.4
2018-Feb-12 13:59N 38°15' W 024°22'613.1
2018-Feb-12 13:30N 38°17' W 024°15'613.0
2018-Feb-12 13:01N 38°20' W 024°08'713.1
2018-Feb-12 12:29N 38°24' W 024°00'  
2018-Feb-08 15:00N 52°06' W 006°13'1611.0
2018-Feb-08 13:30N 52°21' W 006°01'611.2
2018-Feb-08 13:00N 52°26' W 005°58'611.5
2018-Feb-08 12:30N 52°32' W 005°54'1212.0
2018-Feb-08 11:30N 52°43' W 005°47'612.4
2018-Feb-08 11:00N 52°49' W 005°43'612.8
2018-Feb-08 10:30N 52°55' W 005°39'2813.8
2018-Feb-08 08:30N 53°22' W 005°30'4013.5
2018-Feb-08 05:30N 54°01' W 005°18'1312.8
2018-Feb-08 04:30N 54°14' W 005°16'612.6
2018-Feb-08 04:00N 54°20' W 005°14'612.8
2018-Feb-08 03:30N 54°27' W 005°12'613.0
2018-Feb-08 03:00N 54°33' W 005°10'713.4
2018-Feb-08 02:30N 54°39' W 005°15'1514.6
2018-Feb-08 01:30N 54°51' W 005°30'1014.7
2018-Feb-08 00:50N 54°59' W 005°40'514.6
2018-Feb-08 00:30N 55°03' W 005°45'714.5
2018-Feb-08 00:00N 55°09' W 005°52'714.3
2018-Feb-07 23:30N 55°15' W 005°59'713.2
2018-Feb-07 23:00N 55°20' W 006°06'612.6
2018-Feb-07 22:30N 55°22' W 006°17'612.0
2018-Feb-07 22:00N 55°25' W 006°26'611.9
2018-Feb-07 21:31N 55°30' W 006°32'  
Track history (hours):
 
Tides and Currents Weather Stations Pressure Air Temp Water Temp Dewpoint Dewpoint Depression Visibility Wind Speed Wind Dir Waves Ship Positions

Aramis

Last reported at 2018-Feb-13 22:12 UTC. Time now 2018-Feb-18 01:15 UTC.
Position N 37°42' W 032°53'.

Length 190 m; draft 11.3 m.

Type: Cargo ship. MMSI: 538004630.

Date/timePositionNaut miles runAvg speedWind from/ knotsBaromVisibWave heightAir tempDewpointWater temp
2018-Feb-13 22:12N 37°42' W 032°53'912.3
2018-Feb-13 21:28N 37°43' W 032°42'3612.5
2018-Feb-13 18:35N 37°45' W 031°56'1912.7
2018-Feb-13 17:03N 37°46' W 031°31'3112.5
2018-Feb-13 14:35N 37°48' W 030°52'112.1
2018-Feb-13 14:29N 37°48' W 030°51'1212.1
2018-Feb-13 13:31N 37°49' W 030°36'212.0
2018-Feb-13 13:19N 37°49' W 030°33'411.9
2018-Feb-13 12:59N 37°49' W 030°28'612.1
2018-Feb-13 12:30N 37°50' W 030°21'612.1
2018-Feb-13 12:00N 37°50' W 030°13'611.9
2018-Feb-13 11:30N 37°51' W 030°06'612.3
2018-Feb-13 11:00N 37°51' W 029°58'612.5
2018-Feb-13 10:30N 37°51' W 029°50'612.4
2018-Feb-13 10:00N 37°52' W 029°42'612.4
2018-Feb-13 09:30N 37°52' W 029°34'612.4
2018-Feb-13 09:00N 37°53' W 029°26'612.3
2018-Feb-13 08:30N 37°53' W 029°19'612.2
2018-Feb-13 08:00N 37°53' W 029°11'612.2
2018-Feb-13 07:30N 37°54' W 029°03'612.5
2018-Feb-13 07:00N 37°54' W 028°55'612.2
2018-Feb-13 06:30N 37°55' W 028°48'612.0
2018-Feb-13 06:00N 37°55' W 028°40'612.0
2018-Feb-13 05:30N 37°55' W 028°32'612.3
2018-Feb-13 05:00N 37°56' W 028°25'612.7
2018-Feb-13 04:30N 37°56' W 028°17'612.7
2018-Feb-13 04:00N 37°57' W 028°09'612.8
2018-Feb-13 03:30N 37°57' W 028°01'612.6
2018-Feb-13 03:00N 37°57' W 027°53'612.8
2018-Feb-13 02:30N 37°58' W 027°45'612.9
2018-Feb-13 02:00N 37°58' W 027°36'612.7
2018-Feb-13 01:30N 37°59' W 027°28'612.6
2018-Feb-13 01:00N 37°59' W 027°20'612.6
2018-Feb-13 00:30N 37°59' W 027°12'612.7
2018-Feb-13 00:00N 37°60' W 027°04'612.7
2018-Feb-12 23:30N 38°00' W 026°56'612.6
2018-Feb-12 23:00N 38°01' W 026°48'612.7
2018-Feb-12 22:30N 38°01' W 026°40'612.8
2018-Feb-12 22:00N 38°01' W 026°32'612.6
2018-Feb-12 21:30N 38°01' W 026°24'612.3
2018-Feb-12 21:00N 38°01' W 026°16'612.3
2018-Feb-12 20:30N 38°01' W 026°08'612.7
2018-Feb-12 20:00N 38°02' W 026°00'612.6
2018-Feb-12 19:30N 38°02' W 025°52'612.7
2018-Feb-12 19:01N 38°03' W 025°44'612.9
2018-Feb-12 18:30N 38°03' W 025°36'713.0
2018-Feb-12 18:00N 38°04' W 025°28'613.0
2018-Feb-12 17:30N 38°04' W 025°20'713.1
2018-Feb-12 17:00N 38°05' W 025°12'713.1
2018-Feb-12 16:30N 38°07' W 025°03'713.2
2018-Feb-12 16:00N 38°08' W 024°55'613.0
2018-Feb-12 15:30N 38°09' W 024°47'713.3
2018-Feb-12 15:00N 38°10' W 024°39'713.2
2018-Feb-12 14:30N 38°12' W 024°31'713.4
2018-Feb-12 13:59N 38°15' W 024°22'613.1
2018-Feb-12 13:30N 38°17' W 024°15'613.0
2018-Feb-12 13:01N 38°20' W 024°08'713.1
2018-Feb-12 12:29N 38°24' W 024°00'  
2018-Feb-08 15:00N 52°06' W 006°13'1611.0
2018-Feb-08 13:30N 52°21' W 006°01'611.2
2018-Feb-08 13:00N 52°26' W 005°58'611.5
2018-Feb-08 12:30N 52°32' W 005°54'1212.0
2018-Feb-08 11:30N 52°43' W 005°47'612.4
2018-Feb-08 11:00N 52°49' W 005°43'612.8
2018-Feb-08 10:30N 52°55' W 005°39'2813.8
2018-Feb-08 08:30N 53°22' W 005°30'4013.5
2018-Feb-08 05:30N 54°01' W 005°18'1312.8
2018-Feb-08 04:30N 54°14' W 005°16'612.6
2018-Feb-08 04:00N 54°20' W 005°14'612.8
2018-Feb-08 03:30N 54°27' W 005°12'613.0
2018-Feb-08 03:00N 54°33' W 005°10'713.4
2018-Feb-08 02:30N 54°39' W 005°15'1514.6
2018-Feb-08 01:30N 54°51' W 005°30'1014.7
2018-Feb-08 00:50N 54°59' W 005°40'514.6
2018-Feb-08 00:30N 55°03' W 005°45'714.5
2018-Feb-08 00:00N 55°09' W 005°52'714.3
2018-Feb-07 23:30N 55°15' W 005°59'713.2
2018-Feb-07 23:00N 55°20' W 006°06'612.6
2018-Feb-07 22:30N 55°22' W 006°17'612.0
2018-Feb-07 22:00N 55°25' W 006°26'611.9
2018-Feb-07 21:31N 55°30' W 006°32'  

Dump ship's entire track history